sensor_id;sensor_type;location;lat;lon;timestamp;P1;durP1;ratioP1;P2;durP2;ratioP2
24157;SDS011;12316;50.904;4.200;2022-08-19T00:00:37;38.33;;;32.63;;
24157;SDS011;12316;50.904;4.200;2022-08-19T00:03:03;45.10;;;36.30;;
24157;SDS011;12316;50.904;4.200;2022-08-19T00:05:30;49.22;;;38.13;;
24157;SDS011;12316;50.904;4.200;2022-08-19T00:07:56;48.05;;;38.35;;
24157;SDS011;12316;50.904;4.200;2022-08-19T00:10:22;52.20;;;38.92;;
24157;SDS011;12316;50.904;4.200;2022-08-19T00:12:48;52.25;;;40.25;;
24157;SDS011;12316;50.904;4.200;2022-08-19T00:15:16;53.60;;;40.60;;
24157;SDS011;12316;50.904;4.200;2022-08-19T00:17:44;51.42;;;39.35;;
24157;SDS011;12316;50.904;4.200;2022-08-19T00:20:12;52.65;;;40.63;;
24157;SDS011;12316;50.904;4.200;2022-08-19T00:22:41;53.75;;;40.47;;
24157;SDS011;12316;50.904;4.200;2022-08-19T00:25:07;58.47;;;42.00;;
24157;SDS011;12316;50.904;4.200;2022-08-19T00:27:34;56.97;;;42.75;;
24157;SDS011;12316;50.904;4.200;2022-08-19T00:30:00;59.38;;;42.70;;
24157;SDS011;12316;50.904;4.200;2022-08-19T00:32:28;61.38;;;43.70;;
24157;SDS011;12316;50.904;4.200;2022-08-19T00:34:54;60.70;;;43.90;;
24157;SDS011;12316;50.904;4.200;2022-08-19T00:37:21;64.30;;;45.00;;
24157;SDS011;12316;50.904;4.200;2022-08-19T00:39:48;61.97;;;43.97;;
24157;SDS011;12316;50.904;4.200;2022-08-19T00:42:15;61.03;;;43.50;;
24157;SDS011;12316;50.904;4.200;2022-08-19T00:44:42;64.50;;;46.78;;
24157;SDS011;12316;50.904;4.200;2022-08-19T00:47:08;71.47;;;49.20;;
24157;SDS011;12316;50.904;4.200;2022-08-19T00:49:36;66.60;;;46.30;;
24157;SDS011;12316;50.904;4.200;2022-08-19T00:52:24;60.10;;;42.75;;
24157;SDS011;12316;50.904;4.200;2022-08-19T00:55:02;64.85;;;43.55;;
24157;SDS011;12316;50.904;4.200;2022-08-19T00:57:32;58.05;;;43.03;;
24157;SDS011;12316;50.904;4.200;2022-08-19T01:00:03;62.58;;;44.30;;
24157;SDS011;12316;50.904;4.200;2022-08-19T01:02:34;57.38;;;40.65;;
24157;SDS011;12316;50.904;4.200;2022-08-19T01:05:01;58.55;;;43.50;;
24157;SDS011;12316;50.904;4.200;2022-08-19T01:07:30;62.80;;;43.90;;
24157;SDS011;12316;50.904;4.200;2022-08-19T01:09:56;59.78;;;43.80;;
24157;SDS011;12316;50.904;4.200;2022-08-19T01:12:23;59.63;;;43.25;;
24157;SDS011;12316;50.904;4.200;2022-08-19T01:14:48;57.88;;;42.55;;
24157;SDS011;12316;50.904;4.200;2022-08-19T01:17:15;60.47;;;42.33;;
24157;SDS011;12316;50.904;4.200;2022-08-19T01:19:42;58.03;;;42.40;;
24157;SDS011;12316;50.904;4.200;2022-08-19T01:25:16;53.63;;;39.17;;
24157;SDS011;12316;50.904;4.200;2022-08-19T01:27:47;56.40;;;41.38;;
24157;SDS011;12316;50.904;4.200;2022-08-19T01:30:15;53.67;;;40.00;;
24157;SDS011;12316;50.904;4.200;2022-08-19T01:32:44;57.95;;;41.33;;
24157;SDS011;12316;50.904;4.200;2022-08-19T01:35:10;57.45;;;41.78;;
24157;SDS011;12316;50.904;4.200;2022-08-19T01:37:47;51.70;;;39.63;;
24157;SDS011;12316;50.904;4.200;2022-08-19T01:40:22;54.78;;;39.38;;
24157;SDS011;12316;50.904;4.200;2022-08-19T01:42:51;52.42;;;38.95;;
24157;SDS011;12316;50.904;4.200;2022-08-19T01:45:19;49.55;;;37.30;;
24157;SDS011;12316;50.904;4.200;2022-08-19T01:47:47;53.30;;;40.00;;
24157;SDS011;12316;50.904;4.200;2022-08-19T01:50:13;53.70;;;38.17;;
24157;SDS011;12316;50.904;4.200;2022-08-19T01:52:40;49.65;;;36.75;;
24157;SDS011;12316;50.904;4.200;2022-08-19T01:55:08;49.22;;;37.28;;
24157;SDS011;12316;50.904;4.200;2022-08-19T01:57:36;47.63;;;33.35;;
24157;SDS011;12316;50.904;4.200;2022-08-19T02:00:05;40.50;;;32.00;;
24157;SDS011;12316;50.904;4.200;2022-08-19T02:02:37;40.65;;;31.30;;
24157;SDS011;12316;50.904;4.200;2022-08-19T02:05:04;40.08;;;30.85;;
24157;SDS011;12316;50.904;4.200;2022-08-19T02:07:32;44.22;;;32.95;;
24157;SDS011;12316;50.904;4.200;2022-08-19T02:09:57;43.42;;;33.05;;
24157;SDS011;12316;50.904;4.200;2022-08-19T02:12:23;41.22;;;31.50;;
24157;SDS011;12316;50.904;4.200;2022-08-19T02:14:48;39.28;;;32.13;;
24157;SDS011;12316;50.904;4.200;2022-08-19T02:17:14;39.95;;;31.30;;
24157;SDS011;12316;50.904;4.200;2022-08-19T02:19:39;41.90;;;31.35;;
24157;SDS011;12316;50.904;4.200;2022-08-19T02:22:05;41.28;;;31.42;;
24157;SDS011;12316;50.904;4.200;2022-08-19T02:24:31;40.75;;;30.63;;
24157;SDS011;12316;50.904;4.200;2022-08-19T02:26:57;39.30;;;30.55;;
24157;SDS011;12316;50.904;4.200;2022-08-19T02:29:23;45.28;;;31.30;;
24157;SDS011;12316;50.904;4.200;2022-08-19T02:31:49;39.55;;;30.10;;
24157;SDS011;12316;50.904;4.200;2022-08-19T02:34:15;38.83;;;29.95;;
24157;SDS011;12316;50.904;4.200;2022-08-19T02:36:41;36.03;;;28.17;;
24157;SDS011;12316;50.904;4.200;2022-08-19T02:39:07;40.35;;;30.30;;
24157;SDS011;12316;50.904;4.200;2022-08-19T02:41:33;39.40;;;29.40;;
24157;SDS011;12316;50.904;4.200;2022-08-19T02:44:00;38.90;;;29.45;;
24157;SDS011;12316;50.904;4.200;2022-08-19T02:46:28;41.63;;;30.35;;
24157;SDS011;12316;50.904;4.200;2022-08-19T02:48:56;38.15;;;29.90;;
24157;SDS011;12316;50.904;4.200;2022-08-19T02:51:25;37.17;;;27.75;;
24157;SDS011;12316;50.904;4.200;2022-08-19T02:53:53;42.95;;;29.35;;
24157;SDS011;12316;50.904;4.200;2022-08-19T02:56:20;39.95;;;30.23;;
24157;SDS011;12316;50.904;4.200;2022-08-19T02:58:46;42.50;;;29.48;;
24157;SDS011;12316;50.904;4.200;2022-08-19T03:01:19;34.75;;;27.45;;
24157;SDS011;12316;50.904;4.200;2022-08-19T03:03:47;44.97;;;29.83;;
24157;SDS011;12316;50.904;4.200;2022-08-19T03:06:13;44.28;;;30.77;;
24157;SDS011;12316;50.904;4.200;2022-08-19T03:08:41;40.53;;;29.67;;
24157;SDS011;12316;50.904;4.200;2022-08-19T03:11:19;41.05;;;29.48;;
24157;SDS011;12316;50.904;4.200;2022-08-19T03:13:47;44.38;;;30.75;;
24157;SDS011;12316;50.904;4.200;2022-08-19T03:16:17;43.80;;;29.55;;
24157;SDS011;12316;50.904;4.200;2022-08-19T03:18:43;42.58;;;28.33;;
24157;SDS011;12316;50.904;4.200;2022-08-19T03:21:14;40.08;;;29.05;;
24157;SDS011;12316;50.904;4.200;2022-08-19T03:23:44;43.47;;;29.33;;
24157;SDS011;12316;50.904;4.200;2022-08-19T03:26:10;41.33;;;28.92;;
24157;SDS011;12316;50.904;4.200;2022-08-19T03:28:36;38.03;;;29.27;;
24157;SDS011;12316;50.904;4.200;2022-08-19T03:31:03;34.58;;;27.05;;
24157;SDS011;12316;50.904;4.200;2022-08-19T03:33:31;37.15;;;27.63;;
24157;SDS011;12316;50.904;4.200;2022-08-19T03:36:02;37.10;;;27.27;;
24157;SDS011;12316;50.904;4.200;2022-08-19T03:38:37;36.33;;;26.55;;
24157;SDS011;12316;50.904;4.200;2022-08-19T03:41:14;39.83;;;27.02;;
24157;SDS011;12316;50.904;4.200;2022-08-19T03:43:42;36.63;;;27.45;;
24157;SDS011;12316;50.904;4.200;2022-08-19T03:46:12;39.30;;;28.08;;
24157;SDS011;12316;50.904;4.200;2022-08-19T03:48:40;40.50;;;28.77;;
24157;SDS011;12316;50.904;4.200;2022-08-19T03:51:08;34.88;;;27.48;;
24157;SDS011;12316;50.904;4.200;2022-08-19T03:53:44;36.58;;;27.98;;
24157;SDS011;12316;50.904;4.200;2022-08-19T03:56:11;39.15;;;28.90;;
24157;SDS011;12316;50.904;4.200;2022-08-19T03:58:38;40.40;;;27.75;;
24157;SDS011;12316;50.904;4.200;2022-08-19T04:01:09;39.08;;;28.75;;
24157;SDS011;12316;50.904;4.200;2022-08-19T04:06:17;38.83;;;27.48;;
24157;SDS011;12316;50.904;4.200;2022-08-19T04:08:48;40.50;;;27.35;;
24157;SDS011;12316;50.904;4.200;2022-08-19T04:11:16;37.00;;;26.75;;
24157;SDS011;12316;50.904;4.200;2022-08-19T04:13:45;35.53;;;26.27;;
24157;SDS011;12316;50.904;4.200;2022-08-19T04:16:11;35.47;;;25.30;;
24157;SDS011;12316;50.904;4.200;2022-08-19T04:18:37;36.28;;;26.08;;
24157;SDS011;12316;50.904;4.200;2022-08-19T04:21:04;39.50;;;26.25;;
24157;SDS011;12316;50.904;4.200;2022-08-19T04:23:31;39.08;;;27.08;;
24157;SDS011;12316;50.904;4.200;2022-08-19T04:25:57;34.78;;;25.40;;
24157;SDS011;12316;50.904;4.200;2022-08-19T04:28:24;35.35;;;25.42;;
24157;SDS011;12316;50.904;4.200;2022-08-19T04:30:51;34.92;;;24.55;;
24157;SDS011;12316;50.904;4.200;2022-08-19T04:33:19;33.95;;;24.08;;
24157;SDS011;12316;50.904;4.200;2022-08-19T04:35:47;36.63;;;24.08;;
24157;SDS011;12316;50.904;4.200;2022-08-19T04:38:15;33.03;;;23.65;;
24157;SDS011;12316;50.904;4.200;2022-08-19T04:40:46;35.22;;;23.52;;
24157;SDS011;12316;50.904;4.200;2022-08-19T04:43:33;31.90;;;23.75;;
24157;SDS011;12316;50.904;4.200;2022-08-19T04:46:04;38.40;;;25.27;;
24157;SDS011;12316;50.904;4.200;2022-08-19T04:48:35;35.13;;;23.23;;
24157;SDS011;12316;50.904;4.200;2022-08-19T04:51:05;35.75;;;24.40;;
24157;SDS011;12316;50.904;4.200;2022-08-19T04:53:32;32.38;;;22.40;;
24157;SDS011;12316;50.904;4.200;2022-08-19T04:56:02;37.15;;;23.30;;
24157;SDS011;12316;50.904;4.200;2022-08-19T04:58:32;29.53;;;21.33;;
24157;SDS011;12316;50.904;4.200;2022-08-19T05:00:58;31.25;;;22.35;;
24157;SDS011;12316;50.904;4.200;2022-08-19T05:03:26;34.88;;;22.05;;
24157;SDS011;12316;50.904;4.200;2022-08-19T05:05:51;32.40;;;22.50;;
24157;SDS011;12316;50.904;4.200;2022-08-19T05:08:19;30.95;;;21.58;;
24157;SDS011;12316;50.904;4.200;2022-08-19T05:10:47;30.73;;;20.85;;
24157;SDS011;12316;50.904;4.200;2022-08-19T05:13:15;32.53;;;22.27;;
24157;SDS011;12316;50.904;4.200;2022-08-19T05:15:42;30.63;;;21.05;;
24157;SDS011;12316;50.904;4.200;2022-08-19T05:18:08;33.17;;;21.15;;
24157;SDS011;12316;50.904;4.200;2022-08-19T05:20:54;31.30;;;21.65;;
24157;SDS011;12316;50.904;4.200;2022-08-19T05:23:38;29.67;;;19.75;;
24157;SDS011;12316;50.904;4.200;2022-08-19T05:26:06;27.30;;;19.35;;
24157;SDS011;12316;50.904;4.200;2022-08-19T05:28:31;26.65;;;18.17;;
24157;SDS011;12316;50.904;4.200;2022-08-19T05:30:57;31.23;;;19.42;;
24157;SDS011;12316;50.904;4.200;2022-08-19T05:33:22;30.83;;;18.98;;
24157;SDS011;12316;50.904;4.200;2022-08-19T05:35:49;26.10;;;18.63;;
24157;SDS011;12316;50.904;4.200;2022-08-19T05:38:16;25.20;;;17.52;;
24157;SDS011;12316;50.904;4.200;2022-08-19T05:40:42;25.60;;;16.83;;
24157;SDS011;12316;50.904;4.200;2022-08-19T05:43:11;27.00;;;15.75;;
24157;SDS011;12316;50.904;4.200;2022-08-19T05:45:40;26.63;;;16.33;;
24157;SDS011;12316;50.904;4.200;2022-08-19T05:48:07;25.35;;;16.45;;
24157;SDS011;12316;50.904;4.200;2022-08-19T05:50:36;26.50;;;16.80;;
24157;SDS011;12316;50.904;4.200;2022-08-19T05:53:02;19.98;;;15.45;;
24157;SDS011;12316;50.904;4.200;2022-08-19T05:55:28;24.85;;;16.80;;
24157;SDS011;12316;50.904;4.200;2022-08-19T05:57:54;24.13;;;16.35;;
24157;SDS011;12316;50.904;4.200;2022-08-19T06:00:19;22.45;;;16.20;;
24157;SDS011;12316;50.904;4.200;2022-08-19T06:02:45;19.48;;;14.27;;
24157;SDS011;12316;50.904;4.200;2022-08-19T06:05:11;22.20;;;15.55;;
24157;SDS011;12316;50.904;4.200;2022-08-19T06:07:37;21.05;;;15.77;;
24157;SDS011;12316;50.904;4.200;2022-08-19T06:10:04;24.70;;;16.85;;
24157;SDS011;12316;50.904;4.200;2022-08-19T06:12:31;23.73;;;16.52;;
24157;SDS011;12316;50.904;4.200;2022-08-19T06:15:05;21.23;;;16.17;;
24157;SDS011;12316;50.904;4.200;2022-08-19T06:17:33;22.13;;;16.10;;
24157;SDS011;12316;50.904;4.200;2022-08-19T06:20:00;19.58;;;14.70;;
24157;SDS011;12316;50.904;4.200;2022-08-19T06:22:26;22.45;;;14.80;;
24157;SDS011;12316;50.904;4.200;2022-08-19T06:24:53;20.48;;;14.82;;
24157;SDS011;12316;50.904;4.200;2022-08-19T06:27:20;20.40;;;14.38;;
24157;SDS011;12316;50.904;4.200;2022-08-19T06:29:46;23.35;;;14.85;;
24157;SDS011;12316;50.904;4.200;2022-08-19T06:32:14;19.70;;;14.13;;
24157;SDS011;12316;50.904;4.200;2022-08-19T06:34:41;20.08;;;14.25;;
24157;SDS011;12316;50.904;4.200;2022-08-19T06:37:07;19.83;;;14.30;;
24157;SDS011;12316;50.904;4.200;2022-08-19T06:39:34;18.05;;;13.57;;
24157;SDS011;12316;50.904;4.200;2022-08-19T06:42:03;20.73;;;14.75;;
24157;SDS011;12316;50.904;4.200;2022-08-19T06:44:37;20.05;;;14.40;;
24157;SDS011;12316;50.904;4.200;2022-08-19T06:47:06;23.13;;;13.40;;
24157;SDS011;12316;50.904;4.200;2022-08-19T06:49:33;20.50;;;13.75;;
24157;SDS011;12316;50.904;4.200;2022-08-19T06:51:59;20.02;;;13.57;;
24157;SDS011;12316;50.904;4.200;2022-08-19T06:54:26;22.08;;;13.30;;
24157;SDS011;12316;50.904;4.200;2022-08-19T06:56:54;20.60;;;12.20;;
24157;SDS011;12316;50.904;4.200;2022-08-19T06:59:22;18.95;;;12.30;;
24157;SDS011;12316;50.904;4.200;2022-08-19T07:01:53;16.05;;;11.20;;
24157;SDS011;12316;50.904;4.200;2022-08-19T07:04:21;18.00;;;11.93;;
24157;SDS011;12316;50.904;4.200;2022-08-19T07:06:50;19.65;;;11.50;;
24157;SDS011;12316;50.904;4.200;2022-08-19T07:09:22;16.55;;;11.65;;
24157;SDS011;12316;50.904;4.200;2022-08-19T07:11:49;16.35;;;10.80;;
24157;SDS011;12316;50.904;4.200;2022-08-19T07:14:18;17.83;;;10.80;;
24157;SDS011;12316;50.904;4.200;2022-08-19T07:16:45;20.63;;;11.20;;
24157;SDS011;12316;50.904;4.200;2022-08-19T07:19:12;15.23;;;9.65;;
24157;SDS011;12316;50.904;4.200;2022-08-19T07:21:38;17.05;;;10.40;;
24157;SDS011;12316;50.904;4.200;2022-08-19T07:24:03;16.38;;;9.90;;
24157;SDS011;12316;50.904;4.200;2022-08-19T07:26:30;14.00;;;9.85;;
24157;SDS011;12316;50.904;4.200;2022-08-19T07:28:58;15.73;;;9.05;;
24157;SDS011;12316;50.904;4.200;2022-08-19T07:31:26;11.30;;;7.95;;
24157;SDS011;12316;50.904;4.200;2022-08-19T07:33:53;14.82;;;8.77;;
24157;SDS011;12316;50.904;4.200;2022-08-19T07:36:22;13.57;;;8.35;;
24157;SDS011;12316;50.904;4.200;2022-08-19T07:38:55;14.07;;;8.63;;
24157;SDS011;12316;50.904;4.200;2022-08-19T07:41:22;11.02;;;7.50;;
24157;SDS011;12316;50.904;4.200;2022-08-19T07:43:49;14.68;;;7.95;;
24157;SDS011;12316;50.904;4.200;2022-08-19T07:46:15;13.02;;;8.07;;
24157;SDS011;12316;50.904;4.200;2022-08-19T07:48:42;14.27;;;7.95;;
24157;SDS011;12316;50.904;4.200;2022-08-19T07:51:12;17.20;;;8.02;;
24157;SDS011;12316;50.904;4.200;2022-08-19T07:53:39;17.42;;;8.20;;
24157;SDS011;12316;50.904;4.200;2022-08-19T07:56:05;12.15;;;7.70;;
24157;SDS011;12316;50.904;4.200;2022-08-19T07:58:32;14.75;;;8.10;;
24157;SDS011;12316;50.904;4.200;2022-08-19T08:01:02;12.52;;;6.97;;
24157;SDS011;12316;50.904;4.200;2022-08-19T08:03:29;15.77;;;7.05;;
24157;SDS011;12316;50.904;4.200;2022-08-19T08:06:13;13.27;;;7.60;;
24157;SDS011;12316;50.904;4.200;2022-08-19T08:08:59;15.15;;;7.75;;
24157;SDS011;12316;50.904;4.200;2022-08-19T08:11:39;12.30;;;7.20;;
24157;SDS011;12316;50.904;4.200;2022-08-19T08:14:19;11.75;;;7.50;;
24157;SDS011;12316;50.904;4.200;2022-08-19T08:16:54;13.98;;;7.53;;
24157;SDS011;12316;50.904;4.200;2022-08-19T08:19:21;11.13;;;7.90;;
24157;SDS011;12316;50.904;4.200;2022-08-19T08:21:49;13.68;;;7.50;;
24157;SDS011;12316;50.904;4.200;2022-08-19T08:24:16;11.40;;;7.00;;
24157;SDS011;12316;50.904;4.200;2022-08-19T08:26:42;10.70;;;7.30;;
24157;SDS011;12316;50.904;4.200;2022-08-19T08:29:12;14.40;;;8.15;;
24157;SDS011;12316;50.904;4.200;2022-08-19T08:31:39;11.02;;;7.30;;
24157;SDS011;12316;50.904;4.200;2022-08-19T08:34:06;12.13;;;7.95;;
24157;SDS011;12316;50.904;4.200;2022-08-19T08:36:32;18.13;;;8.93;;
24157;SDS011;12316;50.904;4.200;2022-08-19T08:38:59;16.65;;;8.75;;
24157;SDS011;12316;50.904;4.200;2022-08-19T08:41:31;13.35;;;8.77;;
24157;SDS011;12316;50.904;4.200;2022-08-19T08:44:17;14.38;;;8.13;;
24157;SDS011;12316;50.904;4.200;2022-08-19T08:46:51;13.02;;;7.97;;
24157;SDS011;12316;50.904;4.200;2022-08-19T08:52:00;13.02;;;8.23;;
24157;SDS011;12316;50.904;4.200;2022-08-19T08:54:51;12.20;;;7.70;;
24157;SDS011;12316;50.904;4.200;2022-08-19T08:57:23;12.02;;;7.75;;
24157;SDS011;12316;50.904;4.200;2022-08-19T08:59:57;12.60;;;8.48;;
24157;SDS011;12316;50.904;4.200;2022-08-19T09:02:29;11.38;;;8.20;;
24157;SDS011;12316;50.904;4.200;2022-08-19T09:04:54;11.55;;;6.88;;
24157;SDS011;12316;50.904;4.200;2022-08-19T09:10:08;11.65;;;6.90;;
24157;SDS011;12316;50.904;4.200;2022-08-19T09:13:05;12.10;;;6.95;;
24157;SDS011;12316;50.904;4.200;2022-08-19T09:15:37;11.32;;;6.30;;
24157;SDS011;12316;50.904;4.200;2022-08-19T09:18:07;11.10;;;7.30;;
24157;SDS011;12316;50.904;4.200;2022-08-19T09:20:34;9.70;;;6.85;;
24157;SDS011;12316;50.904;4.200;2022-08-19T09:22:59;9.13;;;6.22;;
24157;SDS011;12316;50.904;4.200;2022-08-19T09:25:25;11.18;;;6.80;;
24157;SDS011;12316;50.904;4.200;2022-08-19T09:27:51;13.32;;;5.85;;
24157;SDS011;12316;50.904;4.200;2022-08-19T09:30:27;7.10;;;6.07;;
24157;SDS011;12316;50.904;4.200;2022-08-19T09:32:59;7.30;;;5.82;;
24157;SDS011;12316;50.904;4.200;2022-08-19T09:35:27;9.73;;;6.22;;
24157;SDS011;12316;50.904;4.200;2022-08-19T09:37:54;9.05;;;5.80;;
24157;SDS011;12316;50.904;4.200;2022-08-19T09:40:21;10.55;;;5.90;;
24157;SDS011;12316;50.904;4.200;2022-08-19T09:42:47;10.32;;;6.50;;
24157;SDS011;12316;50.904;4.200;2022-08-19T09:45:17;8.23;;;6.55;;
24157;SDS011;12316;50.904;4.200;2022-08-19T09:47:46;11.63;;;6.45;;
24157;SDS011;12316;50.904;4.200;2022-08-19T09:50:13;11.18;;;6.97;;
24157;SDS011;12316;50.904;4.200;2022-08-19T09:52:39;10.65;;;6.60;;
24157;SDS011;12316;50.904;4.200;2022-08-19T09:55:07;8.15;;;6.55;;
24157;SDS011;12316;50.904;4.200;2022-08-19T09:57:34;10.60;;;7.07;;
24157;SDS011;12316;50.904;4.200;2022-08-19T10:00:03;8.65;;;6.47;;
24157;SDS011;12316;50.904;4.200;2022-08-19T10:02:31;11.63;;;7.13;;
24157;SDS011;12316;50.904;4.200;2022-08-19T10:04:57;11.75;;;7.10;;
24157;SDS011;12316;50.904;4.200;2022-08-19T10:07:41;11.60;;;7.25;;
24157;SDS011;12316;50.904;4.200;2022-08-19T10:10:07;11.65;;;7.25;;
24157;SDS011;12316;50.904;4.200;2022-08-19T10:12:34;8.77;;;6.60;;
24157;SDS011;12316;50.904;4.200;2022-08-19T10:15:02;13.63;;;7.25;;
24157;SDS011;12316;50.904;4.200;2022-08-19T10:17:28;10.32;;;6.97;;
24157;SDS011;12316;50.904;4.200;2022-08-19T10:19:54;11.57;;;7.18;;
24157;SDS011;12316;50.904;4.200;2022-08-19T10:22:20;9.05;;;6.65;;
24157;SDS011;12316;50.904;4.200;2022-08-19T10:24:46;9.25;;;6.40;;
24157;SDS011;12316;50.904;4.200;2022-08-19T10:27:12;8.82;;;6.72;;
24157;SDS011;12316;50.904;4.200;2022-08-19T10:29:38;11.20;;;6.68;;
24157;SDS011;12316;50.904;4.200;2022-08-19T10:32:05;9.98;;;6.60;;
24157;SDS011;12316;50.904;4.200;2022-08-19T10:34:33;8.50;;;6.40;;
24157;SDS011;12316;50.904;4.200;2022-08-19T10:37:01;9.45;;;5.70;;
24157;SDS011;12316;50.904;4.200;2022-08-19T10:39:30;6.97;;;5.80;;
24157;SDS011;12316;50.904;4.200;2022-08-19T10:42:04;7.18;;;5.25;;
24157;SDS011;12316;50.904;4.200;2022-08-19T10:44:31;5.70;;;4.10;;
24157;SDS011;12316;50.904;4.200;2022-08-19T10:46:57;7.15;;;3.85;;
24157;SDS011;12316;50.904;4.200;2022-08-19T10:49:23;7.00;;;3.80;;
24157;SDS011;12316;50.904;4.200;2022-08-19T10:51:49;5.53;;;3.67;;
24157;SDS011;12316;50.904;4.200;2022-08-19T10:54:41;6.63;;;3.33;;
24157;SDS011;12316;50.904;4.200;2022-08-19T10:57:29;10.27;;;4.20;;
24157;SDS011;12316;50.904;4.200;2022-08-19T10:59:55;8.90;;;4.40;;
24157;SDS011;12316;50.904;4.200;2022-08-19T11:02:22;5.40;;;3.80;;
24157;SDS011;12316;50.904;4.200;2022-08-19T11:04:48;4.60;;;4.07;;
24157;SDS011;12316;50.904;4.200;2022-08-19T11:07:15;7.32;;;4.80;;
24157;SDS011;12316;50.904;4.200;2022-08-19T11:09:41;6.95;;;3.80;;
24157;SDS011;12316;50.904;4.200;2022-08-19T11:12:07;8.98;;;4.82;;
24157;SDS011;12316;50.904;4.200;2022-08-19T11:14:34;7.47;;;4.65;;
24157;SDS011;12316;50.904;4.200;2022-08-19T11:17:00;6.45;;;4.70;;
24157;SDS011;12316;50.904;4.200;2022-08-19T11:19:27;10.27;;;6.18;;
24157;SDS011;12316;50.904;4.200;2022-08-19T11:21:54;8.80;;;6.78;;
24157;SDS011;12316;50.904;4.200;2022-08-19T11:24:21;9.48;;;5.78;;
24157;SDS011;12316;50.904;4.200;2022-08-19T11:26:50;9.35;;;6.43;;
24157;SDS011;12316;50.904;4.200;2022-08-19T11:29:19;8.48;;;7.03;;
24157;SDS011;12316;50.904;4.200;2022-08-19T11:31:46;9.57;;;6.80;;
24157;SDS011;12316;50.904;4.200;2022-08-19T11:34:18;10.35;;;8.60;;
24157;SDS011;12316;50.904;4.200;2022-08-19T11:36:47;9.25;;;8.13;;
24157;SDS011;12316;50.904;4.200;2022-08-19T11:39:15;12.57;;;8.32;;
24157;SDS011;12316;50.904;4.200;2022-08-19T11:41:42;11.35;;;8.15;;
24157;SDS011;12316;50.904;4.200;2022-08-19T11:44:09;9.10;;;7.53;;
24157;SDS011;12316;50.904;4.200;2022-08-19T11:46:35;8.68;;;7.15;;
24157;SDS011;12316;50.904;4.200;2022-08-19T11:49:03;7.30;;;6.57;;
24157;SDS011;12316;50.904;4.200;2022-08-19T11:51:30;8.20;;;7.00;;
24157;SDS011;12316;50.904;4.200;2022-08-19T11:53:57;8.40;;;7.50;;
24157;SDS011;12316;50.904;4.200;2022-08-19T11:56:24;9.32;;;7.53;;
24157;SDS011;12316;50.904;4.200;2022-08-19T11:58:51;9.13;;;7.05;;
24157;SDS011;12316;50.904;4.200;2022-08-19T12:01:19;8.02;;;6.90;;
24157;SDS011;12316;50.904;4.200;2022-08-19T12:03:46;8.80;;;6.60;;
24157;SDS011;12316;50.904;4.200;2022-08-19T12:06:15;7.00;;;6.13;;
24157;SDS011;12316;50.904;4.200;2022-08-19T12:08:43;8.07;;;6.20;;
24157;SDS011;12316;50.904;4.200;2022-08-19T12:11:10;7.65;;;6.32;;
24157;SDS011;12316;50.904;4.200;2022-08-19T12:13:37;6.10;;;5.50;;
24157;SDS011;12316;50.904;4.200;2022-08-19T12:16:13;6.10;;;5.32;;
24157;SDS011;12316;50.904;4.200;2022-08-19T12:18:41;8.25;;;5.20;;
24157;SDS011;12316;50.904;4.200;2022-08-19T12:21:21;7.13;;;4.20;;
24157;SDS011;12316;50.904;4.200;2022-08-19T12:23:52;5.00;;;4.50;;
24157;SDS011;12316;50.904;4.200;2022-08-19T12:26:19;6.43;;;4.45;;
24157;SDS011;12316;50.904;4.200;2022-08-19T12:28:45;5.03;;;3.80;;
24157;SDS011;12316;50.904;4.200;2022-08-19T12:31:12;7.43;;;3.88;;
24157;SDS011;12316;50.904;4.200;2022-08-19T12:33:38;3.95;;;3.25;;
24157;SDS011;12316;50.904;4.200;2022-08-19T12:36:05;5.20;;;3.22;;
24157;SDS011;12316;50.904;4.200;2022-08-19T12:38:32;4.05;;;3.63;;
24157;SDS011;12316;50.904;4.200;2022-08-19T12:40:59;5.85;;;3.20;;
24157;SDS011;12316;50.904;4.200;2022-08-19T12:43:25;5.95;;;3.60;;
24157;SDS011;12316;50.904;4.200;2022-08-19T12:45:51;5.32;;;3.50;;
24157;SDS011;12316;50.904;4.200;2022-08-19T12:48:17;5.05;;;3.40;;
24157;SDS011;12316;50.904;4.200;2022-08-19T12:50:44;3.45;;;3.15;;
24157;SDS011;12316;50.904;4.200;2022-08-19T12:53:13;4.22;;;3.00;;
24157;SDS011;12316;50.904;4.200;2022-08-19T12:55:39;4.15;;;3.50;;
24157;SDS011;12316;50.904;4.200;2022-08-19T12:58:06;6.63;;;3.40;;
24157;SDS011;12316;50.904;4.200;2022-08-19T13:00:31;4.18;;;3.38;;
24157;SDS011;12316;50.904;4.200;2022-08-19T13:02:57;3.65;;;3.20;;
24157;SDS011;12316;50.904;4.200;2022-08-19T13:05:24;5.03;;;3.30;;
24157;SDS011;12316;50.904;4.200;2022-08-19T13:07:52;4.00;;;3.30;;
24157;SDS011;12316;50.904;4.200;2022-08-19T13:10:22;3.17;;;2.95;;
24157;SDS011;12316;50.904;4.200;2022-08-19T13:12:52;3.47;;;2.90;;
24157;SDS011;12316;50.904;4.200;2022-08-19T13:15:18;4.22;;;2.70;;
24157;SDS011;12316;50.904;4.200;2022-08-19T13:17:45;7.75;;;2.90;;
24157;SDS011;12316;50.904;4.200;2022-08-19T13:20:13;4.45;;;2.60;;
24157;SDS011;12316;50.904;4.200;2022-08-19T13:22:40;4.57;;;2.53;;
24157;SDS011;12316;50.904;4.200;2022-08-19T13:25:07;4.13;;;2.40;;
24157;SDS011;12316;50.904;4.200;2022-08-19T13:27:33;4.50;;;2.55;;
24157;SDS011;12316;50.904;4.200;2022-08-19T13:30:00;3.20;;;2.50;;
24157;SDS011;12316;50.904;4.200;2022-08-19T13:32:46;4.18;;;2.42;;
24157;SDS011;12316;50.904;4.200;2022-08-19T13:35:31;3.80;;;2.28;;
24157;SDS011;12316;50.904;4.200;2022-08-19T13:37:57;4.57;;;2.60;;
24157;SDS011;12316;50.904;4.200;2022-08-19T13:40:23;4.05;;;2.10;;
24157;SDS011;12316;50.904;4.200;2022-08-19T13:42:52;3.75;;;1.60;;
24157;SDS011;12316;50.904;4.200;2022-08-19T13:45:21;2.38;;;1.70;;
24157;SDS011;12316;50.904;4.200;2022-08-19T13:47:50;4.50;;;1.77;;
24157;SDS011;12316;50.904;4.200;2022-08-19T13:50:18;2.00;;;1.90;;
24157;SDS011;12316;50.904;4.200;2022-08-19T13:52:46;5.20;;;2.13;;
24157;SDS011;12316;50.904;4.200;2022-08-19T13:55:13;2.65;;;1.90;;
24157;SDS011;12316;50.904;4.200;2022-08-19T13:57:40;6.03;;;2.33;;
24157;SDS011;12316;50.904;4.200;2022-08-19T14:00:10;4.82;;;2.58;;
24157;SDS011;12316;50.904;4.200;2022-08-19T14:05:05;6.18;;;3.28;;
24157;SDS011;12316;50.904;4.200;2022-08-19T14:07:32;5.53;;;3.25;;
24157;SDS011;12316;50.904;4.200;2022-08-19T14:09:58;4.90;;;2.70;;
24157;SDS011;12316;50.904;4.200;2022-08-19T14:12:24;4.05;;;2.70;;
24157;SDS011;12316;50.904;4.200;2022-08-19T14:14:50;3.13;;;2.60;;
24157;SDS011;12316;50.904;4.200;2022-08-19T14:17:15;3.25;;;2.83;;
24157;SDS011;12316;50.904;4.200;2022-08-19T14:19:41;2.97;;;2.45;;
24157;SDS011;12316;50.904;4.200;2022-08-19T14:22:08;4.47;;;2.15;;
24157;SDS011;12316;50.904;4.200;2022-08-19T14:24:34;3.55;;;2.10;;
24157;SDS011;12316;50.904;4.200;2022-08-19T14:27:03;3.90;;;2.35;;
24157;SDS011;12316;50.904;4.200;2022-08-19T14:29:29;3.40;;;1.80;;
24157;SDS011;12316;50.904;4.200;2022-08-19T14:31:55;5.72;;;2.30;;
24157;SDS011;12316;50.904;4.200;2022-08-19T14:34:24;2.45;;;2.15;;
24157;SDS011;12316;50.904;4.200;2022-08-19T14:36:51;3.15;;;2.53;;
24157;SDS011;12316;50.904;4.200;2022-08-19T14:39:17;4.70;;;2.13;;
24157;SDS011;12316;50.904;4.200;2022-08-19T14:41:43;4.30;;;2.33;;
24157;SDS011;12316;50.904;4.200;2022-08-19T14:44:10;4.57;;;2.25;;
24157;SDS011;12316;50.904;4.200;2022-08-19T14:46:37;3.33;;;2.22;;
24157;SDS011;12316;50.904;4.200;2022-08-19T14:49:03;5.47;;;2.20;;
24157;SDS011;12316;50.904;4.200;2022-08-19T14:51:29;5.15;;;2.70;;
24157;SDS011;12316;50.904;4.200;2022-08-19T14:53:56;3.47;;;1.90;;